Time;durP1;ratioP1;P1;durP2;ratioP2;P2;SDS_P1;SDS_P2;PMS_P1;PMS_P2;Temp;Humidity;BMP_temperature;BMP_pressure;BME280_temperature;BME280_humidity;BME280_pressure;Samples;Min_cycle;Max_cycle;Signal;HPM_P1;HPM_P2
2022/01/19 03:45:32;;;;;;;26.77;10.40;;;-0.70;97.20;;;;;;5638283;24;20829;-82
2022/01/19 03:50:40;;;;;;;27.63;12.15;;;-0.60;97.10;;;;;;4750888;30;20036;-83
2022/01/19 03:53:05;;;;;;;30.10;10.70;;;-0.70;97.40;;;;;;4750632;30;20054;-83
2022/01/19 03:55:31;;;;;;;40.17;12.80;;;-0.60;97.50;;;;;;4750707;30;20035;-83
2022/01/19 03:57:57;;;;;;;36.10;11.48;;;-0.60;97.70;;;;;;4762417;30;20040;-84
2022/01/19 04:00:23;;;;;;;27.55;10.90;;;-0.60;97.60;;;;;;4747762;30;20028;-84
2022/01/19 04:02:49;;;;;;;22.92;10.38;;;-0.70;97.50;;;;;;4745312;30;20039;-83
2022/01/19 04:05:22;;;;;;;29.00;11.23;;;-0.70;97.50;;;;;;4750712;30;20102;-84
2022/01/19 04:07:48;;;;;;;26.77;11.65;;;-0.60;97.40;;;;;;4750794;30;20366;-84
2022/01/19 04:10:16;;;;;;;34.20;13.65;;;-0.60;97.70;;;;;;4749893;30;20103;-83
2022/01/19 04:15:12;;;;;;;41.95;12.85;;;-0.70;97.50;;;;;;4765048;30;20062;-83
2022/01/19 04:17:42;;;;;;;35.28;13.10;;;-0.70;97.60;;;;;;4779828;30;20358;-83
2022/01/19 04:20:09;;;;;;;24.77;11.20;;;-0.70;97.50;;;;;;4766648;30;20042;-83
2022/01/19 04:22:36;;;;;;;43.05;13.35;;;-0.80;97.40;;;;;;4783078;30;20028;-83
2022/01/19 04:25:04;;;;;;;31.10;11.73;;;-0.80;97.50;;;;;;4783654;30;20346;-83
2022/01/19 04:27:32;;;;;;;31.02;11.82;;;-0.80;97.40;;;;;;4783533;30;20039;-83
2022/01/19 04:30:06;;;;;;;27.13;11.13;;;-0.80;97.30;;;;;;4783617;30;20042;-84
2022/01/19 04:35:29;;;;;;;19.80;9.98;;;-0.90;97.20;;;;;;4767281;30;20056;-83
2022/01/19 05:15:10;;;;;;;33.55;13.85;;;-1.20;97.20;;;;;;4767321;30;20038;-83
2022/01/19 05:17:37;;;;;;;32.97;12.90;;;-1.20;97.60;;;;;;4764894;30;20058;-83
2022/01/19 05:20:07;;;;;;;43.78;14.57;;;-1.30;97.20;;;;;;4764658;30;20331;-83
2022/01/19 05:22:34;;;;;;;40.10;13.43;;;-1.30;97.20;;;;;;4779611;30;20292;-83
2022/01/19 05:25:00;;;;;;;34.15;14.27;;;-1.20;97.30;;;;;;4764904;30;20089;-83
2022/01/19 05:27:48;;;;;;;36.55;15.50;;;-1.30;97.20;;;;;;4767711;30;20055;-83
2022/01/19 05:30:17;;;;;;;43.97;15.87;;;-1.30;97.30;;;;;;4764660;30;20106;-83
2022/01/19 05:32:44;;;;;;;39.17;15.25;;;-1.30;97.30;;;;;;4764750;30;20277;-83
2022/01/19 05:35:11;;;;;;;39.25;15.10;;;-1.30;97.40;;;;;;4764581;30;20032;-83
2022/01/19 05:37:51;;;;;;;31.98;13.55;;;-1.40;97.30;;;;;;4766518;30;20028;-83
2022/01/19 05:40:38;;;;;;;;;;;-1.40;97.40;;;;;;4767588;30;20407;-83
2022/01/19 05:43:04;;;;;;;32.35;12.90;;;-1.40;97.60;;;;;;4779106;30;19910;-83
2022/01/19 05:45:30;;;;;;;40.53;15.73;;;-1.40;97.70;;;;;;4778997;30;20040;-82
2022/01/19 05:48:05;;;;;;;34.28;13.70;;;-1.40;97.70;;;;;;4765048;30;20048;-83
2022/01/19 05:50:32;;;;;;;32.25;13.23;;;-1.40;98.00;;;;;;4750406;30;20032;-83
2022/01/19 05:53:03;;;;;;;45.90;13.85;;;-1.40;98.10;;;;;;4764892;30;20406;-83
2022/01/19 05:55:29;;;;;;;41.97;16.48;;;-1.40;98.10;;;;;;4764359;30;20039;-82
2022/01/19 05:57:55;;;;;;;32.97;14.67;;;-1.40;98.10;;;;;;4764020;30;20039;-83
2022/01/19 06:00:23;;;;;;;33.65;13.65;;;-1.40;98.20;;;;;;4764239;30;20028;-83
2022/01/19 06:02:49;;;;;;;33.67;14.97;;;-1.40;98.10;;;;;;4764111;30;20401;-83
2022/01/19 06:05:19;;;;;;;39.22;14.88;;;-1.40;98.10;;;;;;4764566;30;20038;-83
2022/01/19 06:10:56;;;;;;;39.45;16.92;;;-1.40;97.90;;;;;;4727746;30;20051;-83
2022/01/19 06:13:24;;;;;;;35.13;15.40;;;-1.50;97.90;;;;;;4713900;30;20056;-83
2022/01/19 06:15:50;;;;;;;33.47;15.43;;;-1.50;97.90;;;;;;4714619;30;20076;-82
2022/01/19 06:18:17;;;;;;;48.45;16.35;;;-1.50;98.00;;;;;;4754492;30;20378;-83
2022/01/19 06:20:44;;;;;;;43.55;15.80;;;-1.50;97.90;;;;;;4728599;30;20037;-82
2022/01/19 06:23:13;;;;;;;40.65;14.13;;;-1.50;97.90;;;;;;4731462;30;20048;-82
2022/01/19 06:25:49;;;;;;;50.30;16.90;;;-1.50;98.00;;;;;;4735444;30;20029;-82
2022/01/19 06:28:15;;;;;;;32.13;13.90;;;-1.50;97.90;;;;;;4725238;30;20120;-81
2022/01/19 06:30:41;;;;;;;43.67;15.37;;;-1.60;98.00;;;;;;4727972;30;20037;-82
2022/01/19 06:33:07;;;;;;;33.90;14.77;;;-1.50;98.20;;;;;;4732423;30;20052;-82
2022/01/19 06:35:33;;;;;;;30.30;14.20;;;-1.50;98.10;;;;;;4714733;30;20065;-83
2022/01/19 06:38:22;;;;;;;37.97;13.85;;;-1.60;98.10;;;;;;4688466;30;20038;-83
2022/01/19 06:40:52;;;;;;;33.90;14.00;;;-1.50;98.00;;;;;;4687332;30;20039;-83
2022/01/19 06:43:18;;;;;;;46.73;15.57;;;-1.50;98.20;;;;;;4690793;30;20049;-82
2022/01/19 06:45:43;;;;;;;35.37;15.00;;;-1.50;98.10;;;;;;4690449;30;20063;-82
2022/01/19 06:48:09;;;;;;;42.85;17.42;;;-1.50;98.10;;;;;;4701519;30;20052;-82
2022/01/19 06:50:36;;;;;;;46.35;15.32;;;-1.60;98.00;;;;;;4701500;30;20045;-82
2022/01/19 06:53:03;;;;;;;49.38;17.80;;;-1.50;97.90;;;;;;4695721;30;20128;-83
2022/01/19 06:55:29;;;;;;;44.40;16.08;;;-1.50;98.00;;;;;;4683112;30;20048;-83
2022/01/19 06:57:58;;;;;;;42.95;14.70;;;-1.50;98.00;;;;;;4684741;30;20060;-82
2022/01/19 07:00:50;;;;;;;42.70;16.35;;;-1.50;98.00;;;;;;4653948;30;20038;-83
2022/01/19 07:03:36;;;;;;;31.75;15.27;;;-1.50;98.00;;;;;;4654308;30;20094;-83
2022/01/19 07:06:20;;;;;;;42.45;15.05;;;-1.50;98.00;;;;;;4642515;30;20066;-82
2022/01/19 07:08:58;;;;;;;43.15;17.40;;;-1.40;97.90;;;;;;4641178;30;20717;-83
2022/01/19 07:11:25;;;;;;;30.90;14.43;;;-1.40;97.90;;;;;;4623246;30;20098;-83
2022/01/19 07:13:51;;;;;;;42.17;18.15;;;-1.40;97.90;;;;;;4638652;30;20339;-83
2022/01/19 07:16:16;;;;;;;46.93;18.07;;;-1.30;97.90;;;;;;4687437;30;20060;-83
2022/01/19 07:18:43;;;;;;;31.73;14.10;;;-1.30;98.20;;;;;;4709457;30;20041;-83
2022/01/19 07:21:11;;;;;;;57.75;16.02;;;-1.30;98.60;;;;;;4726875;30;20314;-83
2022/01/19 07:23:50;;;;;;;50.47;18.67;;;-1.20;98.40;;;;;;4698267;30;20065;-83
2022/01/19 07:26:16;;;;;;;35.97;16.80;;;-1.10;98.70;;;;;;4698344;30;20032;-83
2022/01/19 07:28:41;;;;;;;75.68;16.50;;;-1.10;99.10;;;;;;4693847;30;20329;-83
2022/01/19 07:31:07;;;;;;;46.53;16.50;;;-1.00;98.90;;;;;;4710688;30;20569;-83
2022/01/19 07:33:33;;;;;;;32.47;14.57;;;-1.00;98.70;;;;;;4712062;30;20037;-83
2022/01/19 07:35:59;;;;;;;39.95;16.02;;;-0.90;99.00;;;;;;4710668;30;20032;-83
2022/01/19 07:38:26;;;;;;;50.50;15.27;;;-0.30;99.70;;;;;;4732641;30;20105;-83
2022/01/19 07:40:55;;;;;;;;;;;1.00;99.50;;;;;;4756331;30;20051;-83
2022/01/19 07:43:22;;;;;;;45.65;16.33;;;1.50;95.80;;;;;;4784063;30;20144;-83
2022/01/19 07:46:10;;;;;;;58.90;17.48;;;1.40;95.00;;;;;;4783986;30;20076;-83
2022/01/19 07:48:46;;;;;;;40.35;17.20;;;1.00;95.20;;;;;;4736760;30;20104;-83
2022/01/19 07:51:24;;;;;;;52.67;18.23;;;0.70;95.90;;;;;;4750649;30;20051;-83
2022/01/19 07:54:22;;;;;;;64.38;19.65;;;0.40;96.70;;;;;;4703749;30;20058;-83
2022/01/19 07:57:10;;;;;;;48.65;16.98;;;0.20;97.30;;;;;;4701379;30;20333;-83
2022/01/19 07:59:54;;;;;;;48.83;16.52;;;0.20;97.60;;;;;;4701462;30;20025;-83
2022/01/19 08:02:22;;;;;;;50.50;16.90;;;0.20;97.90;;;;;;4711073;30;20056;-83
2022/01/19 08:05:08;;;;;;;41.25;15.02;;;0.20;97.90;;;;;;4713355;30;20055;-83
2022/01/19 08:07:35;;;;;;;46.42;16.00;;;0.30;97.90;;;;;;4730438;30;20033;-83
2022/01/19 08:10:02;;;;;;;;;;;0.40;97.80;;;;;;4711355;30;20267;-83
2022/01/19 08:12:28;;;;;;;40.42;15.38;;;0.40;97.80;;;;;;4710918;30;19922;-83
2022/01/19 08:14:58;;;;;;;39.03;15.52;;;0.40;97.80;;;;;;4710740;30;20264;-83
2022/01/19 08:17:29;;;;;;;46.17;14.35;;;0.40;97.80;;;;;;4687879;30;20054;-83
2022/01/19 08:19:56;;;;;;;35.30;15.45;;;0.40;97.60;;;;;;4727557;30;20079;-83
2022/01/19 08:22:22;;;;;;;39.80;14.60;;;0.40;98.00;;;;;;4710971;30;20107;-83
2022/01/19 08:25:08;;;;;;;29.52;13.95;;;0.40;98.20;;;;;;4713274;30;20037;-83
2022/01/19 08:27:34;;;;;;;37.63;14.18;;;0.50;98.40;;;;;;4711123;30;20044;-83
2022/01/19 08:30:08;;;;;;;36.88;14.18;;;0.50;98.30;;;;;;4724840;30;20040;-83
2022/01/19 08:32:35;;;;;;;42.60;14.77;;;0.60;98.20;;;;;;4762577;30;20089;-83
2022/01/19 08:35:14;;;;;;;41.45;13.88;;;0.80;98.20;;;;;;4766111;30;20069;-83
2022/01/19 08:38:00;;;;;;;41.53;13.63;;;0.80;97.90;;;;;;4743396;30;20041;-83
2022/01/19 08:40:30;;;;;;;50.38;14.50;;;0.90;97.70;;;;;;4728471;30;20165;-83
2022/01/19 08:43:22;;;;;;;36.47;12.85;;;0.90;97.70;;;;;;4719322;30;20230;-83
2022/01/19 08:45:48;;;;;;;48.60;15.18;;;1.00;97.60;;;;;;4723109;30;20061;-83
2022/01/19 08:48:18;;;;;;;47.33;13.50;;;1.10;97.50;;;;;;4707924;30;20045;-84
2022/01/19 08:50:48;;;;;;;38.28;13.55;;;1.10;97.50;;;;;;4707081;30;20044;-83
2022/01/19 08:53:29;;;;;;;27.52;12.32;;;1.10;97.70;;;;;;4706414;30;20411;-83
2022/01/19 08:56:10;;;;;;;33.78;14.00;;;1.20;97.70;;;;;;4722263;30;20049;-83
2022/01/19 08:58:35;;;;;;;47.30;14.13;;;1.40;97.50;;;;;;4708320;30;20050;-83
2022/01/19 09:01:01;;;;;;;37.72;15.05;;;1.50;97.10;;;;;;4722453;30;20116;-83
2022/01/19 09:03:28;;;;;;;36.70;13.52;;;1.50;97.10;;;;;;4722573;30;20037;-83
2022/01/19 09:05:54;;;;;;;32.88;13.13;;;1.60;97.10;;;;;;4707678;30;20124;-83
2022/01/19 09:08:20;;;;;;;40.17;13.25;;;1.60;96.90;;;;;;4706486;30;20048;-83
2022/01/19 09:10:50;;;;;;;37.47;14.80;;;1.70;97.10;;;;;;4706562;30;20073;-83
2022/01/19 09:13:16;;;;;;;47.30;14.60;;;1.80;96.80;;;;;;4706300;30;20064;-83
2022/01/19 09:15:42;;;;;;;34.45;13.00;;;1.80;96.70;;;;;;4761531;30;20090;-83
2022/01/19 09:18:08;;;;;;;38.75;15.40;;;1.90;96.90;;;;;;4730130;30;20058;-83
2022/01/19 09:20:34;;;;;;;37.23;13.23;;;2.10;96.50;;;;;;4771454;30;20044;-83
2022/01/19 09:23:02;;;;;;;41.03;13.02;;;2.10;96.30;;;;;;4763104;30;20027;-83
2022/01/19 09:25:29;;;;;;;35.45;12.68;;;2.10;96.40;;;;;;4778306;30;20040;-83
2022/01/19 09:27:54;;;;;;;41.53;13.35;;;2.20;96.60;;;;;;4778042;30;20024;-81
2022/01/19 09:30:24;;;;;;;33.13;11.25;;;2.40;96.60;;;;;;4763168;30;20331;-81
2022/01/19 09:33:10;;;;;;;40.38;11.50;;;2.50;96.20;;;;;;4761577;30;20047;-81
2022/01/19 09:38:31;;;;;;;29.38;10.48;;;2.60;96.00;;;;;;4792256;30;20331;-82
2022/01/19 09:40:58;;;;;;;26.13;9.75;;;2.70;95.80;;;;;;4780158;30;20116;-82
2022/01/19 09:43:25;;;;;;;;;;;2.80;95.80;;;;;;4780985;30;20055;-82
2022/01/19 09:46:01;;;;;;;28.83;10.02;;;2.90;95.40;;;;;;4774335;30;19921;-83
2022/01/19 09:48:28;;;;;;;27.08;10.80;;;3.00;95.20;;;;;;4777581;30;20039;-83
2022/01/19 09:50:56;;;;;;;34.30;9.75;;;3.00;95.20;;;;;;4763107;30;20043;-83
2022/01/19 09:53:23;;;;;;;34.17;9.80;;;3.10;95.10;;;;;;4795015;30;20035;-83
2022/01/19 09:55:49;;;;;;;43.00;12.70;;;3.20;95.30;;;;;;4780962;30;20046;-82
2022/01/19 09:58:17;;;;;;;65.05;21.65;;;3.30;95.00;;;;;;4780329;30;20172;-83
2022/01/19 10:00:43;;;;;;;30.05;11.15;;;3.40;94.80;;;;;;4765504;30;20102;-82
2022/01/19 10:03:18;;;;;;;41.17;10.98;;;3.50;94.90;;;;;;4778078;30;20066;-82
2022/01/19 10:06:10;;;;;;;29.83;12.07;;;3.60;94.70;;;;;;4764138;30;20403;-83
2022/01/19 10:08:47;;;;;;;34.38;11.57;;;3.80;94.50;;;;;;4778899;30;20043;-83
2022/01/19 10:19:44;;;;;;;28.35;11.30;;;4.20;93.40;;;;;;4778382;30;20040;-83
2022/01/19 10:22:26;;;;;;;34.83;9.68;;;4.30;93.30;;;;;;4777769;30;20415;-83
2022/01/19 10:24:54;;;;;;;37.30;11.27;;;4.50;92.80;;;;;;4776257;30;20035;-83
2022/01/19 10:27:23;;;;;;;29.30;10.65;;;4.50;92.60;;;;;;4777088;30;20069;-83
2022/01/19 10:30:02;;;;;;;33.45;9.45;;;4.60;92.30;;;;;;4777103;30;20442;-83
2022/01/19 10:32:30;;;;;;;28.63;10.13;;;4.60;92.30;;;;;;4771295;30;20387;-83
2022/01/19 10:34:56;;;;;;;23.45;8.18;;;4.70;92.40;;;;;;4777701;30;20032;-84
2022/01/19 10:37:28;;;;;;;25.10;8.93;;;4.80;91.80;;;;;;4762457;30;20363;-83
2022/01/19 10:39:57;;;;;;;19.65;9.02;;;4.80;91.70;;;;;;4751373;30;20059;-83
2022/01/19 10:42:27;;;;;;;27.55;9.73;;;4.90;91.60;;;;;;4786225;30;20062;-84
2022/01/19 10:45:21;;;;;;;30.58;9.75;;;5.00;91.20;;;;;;4745073;30;20035;-83
2022/01/19 10:52:09;;;;;;;;;;;5.20;90.50;;;;;;4747640;30;20115;-84
2022/01/19 10:55:24;;;;;;;25.42;8.75;;;5.40;90.70;;;;;;4726326;30;19918;-84
2022/01/19 10:57:52;;;;;;;23.73;8.38;;;5.60;90.60;;;;;;4745233;30;20039;-83
2022/01/19 11:00:33;;;;;;;21.10;8.60;;;5.70;90.00;;;;;;4747331;30;20053;-83
2022/01/19 11:03:17;;;;;;;25.83;8.43;;;5.70;89.10;;;;;;4739775;30;20055;-83
2022/01/19 11:05:57;;;;;;;26.85;9.07;;;5.70;88.80;;;;;;4735340;30;20351;-83
2022/01/19 11:08:24;;;;;;;27.33;8.25;;;5.70;87.60;;;;;;4753096;30;20285;-83
2022/01/19 11:10:53;;;;;;;25.42;8.20;;;5.80;88.10;;;;;;4717366;30;20044;-84
2022/01/19 11:13:28;;;;;;;18.98;8.55;;;5.80;87.00;;;;;;4770568;30;20051;-83
2022/01/19 11:15:56;;;;;;;28.33;10.07;;;5.70;86.90;;;;;;4777865;30;20031;-83
2022/01/19 11:18:25;;;;;;;22.90;8.75;;;5.80;87.60;;;;;;4763409;30;20035;-84
2022/01/19 11:20:53;;;;;;;29.90;9.18;;;5.90;87.30;;;;;;4780274;30;20031;-83
2022/01/19 11:23:37;;;;;;;23.80;9.88;;;6.00;87.70;;;;;;4779503;30;20046;-83
2022/01/19 11:26:15;;;;;;;19.77;8.50;;;5.90;87.00;;;;;;4799494;29;20093;-83
2022/01/19 11:28:47;;;;;;;28.70;8.82;;;5.90;86.70;;;;;;4779861;30;20104;-84
2022/01/19 11:31:35;;;;;;;31.77;9.30;;;5.80;87.50;;;;;;4765227;30;20039;-83
2022/01/19 11:34:01;;;;;;;33.30;9.77;;;5.90;88.10;;;;;;4779879;30;20027;-84
2022/01/19 11:36:34;;;;;;;37.50;9.95;;;5.90;88.20;;;;;;4779687;30;20043;-83
2022/01/19 11:39:12;;;;;;;26.23;8.77;;;6.10;87.60;;;;;;4780754;30;20047;-84
2022/01/19 11:42:00;;;;;;;22.13;9.32;;;6.00;86.50;;;;;;4779852;30;20043;-84
2022/01/19 11:44:31;;;;;;;28.40;10.75;;;6.00;86.50;;;;;;4764574;30;20162;-84
2022/01/19 11:47:16;;;;;;;27.35;9.48;;;6.10;86.80;;;;;;4779318;30;20118;-84
2022/01/19 11:50:03;;;;;;;23.77;9.45;;;6.10;86.20;;;;;;4779759;30;20064;-84
2022/01/19 11:52:34;;;;;;;37.90;12.82;;;6.20;85.50;;;;;;4772134;30;20102;-84
2022/01/19 11:55:24;;;;;;;32.78;10.07;;;6.10;86.00;;;;;;4781670;30;20034;-82
2022/01/19 11:58:27;;;;;;;34.17;9.80;;;6.00;85.90;;;;;;4777631;30;20137;-84
2022/01/19 12:00:56;;;;;;;31.90;10.40;;;5.90;86.40;;;;;;4764644;30;20036;-83
2022/01/19 12:03:29;;;;;;;21.20;9.70;;;5.90;87.30;;;;;;4776801;30;20339;-84
2022/01/19 12:05:56;;;;;;;37.00;10.60;;;6.00;87.40;;;;;;4773009;30;20049;-85
2022/01/19 12:08:28;;;;;;;32.53;11.45;;;6.10;87.50;;;;;;4763851;30;20055;-84
2022/01/19 12:11:00;;;;;;;27.80;9.30;;;6.10;86.70;;;;;;4763991;30;20048;-84
2022/01/19 12:13:54;;;;;;;26.67;10.02;;;6.00;87.00;;;;;;4777510;30;20035;-84
2022/01/19 12:16:49;;;;;;;34.00;10.23;;;6.00;87.40;;;;;;4779141;30;20047;-81
2022/01/19 12:19:20;;;;;;;32.03;11.27;;;6.00;87.10;;;;;;4782999;30;20039;-84
2022/01/19 12:22:00;;;;;;;31.40;10.73;;;6.00;87.80;;;;;;4769534;30;20035;-84
2022/01/19 12:24:33;;;;;;;37.00;12.75;;;6.10;87.70;;;;;;4781909;30;20028;-84
2022/01/19 12:27:04;;;;;;;35.28;10.73;;;6.20;87.60;;;;;;4780622;30;20032;-83
2022/01/19 12:29:37;;;;;;;27.52;10.73;;;6.30;87.60;;;;;;4780616;30;20096;-83
2022/01/19 12:32:26;;;;;;;26.58;9.77;;;6.30;87.30;;;;;;4776049;30;20275;-83
2022/01/19 12:34:54;;;;;;;36.67;11.43;;;6.40;87.00;;;;;;4766510;30;20111;-84
2022/01/19 12:37:46;;;;;;;26.08;10.43;;;6.30;87.00;;;;;;4779943;30;20027;-83
2022/01/19 12:40:17;;;;;;;21.52;9.18;;;6.30;86.60;;;;;;4785382;30;21082;-83
2022/01/19 12:42:54;;;;;;;27.23;10.23;;;6.20;87.10;;;;;;4784338;30;20054;-83
2022/01/19 12:45:26;;;;;;;34.42;12.43;;;6.30;87.50;;;;;;4782815;30;20234;-83
2022/01/19 12:48:06;;;;;;;24.65;9.57;;;6.30;87.30;;;;;;4771312;30;20406;-83
2022/01/19 12:50:44;;;;;;;27.35;9.52;;;6.40;86.90;;;;;;4771914;30;20031;-82
2022/01/19 12:53:23;;;;;;;34.65;10.52;;;6.50;87.00;;;;;;4785223;30;20262;-83
2022/01/19 12:56:09;;;;;;;23.23;9.60;;;6.60;86.30;;;;;;4781201;30;20324;-83
2022/01/19 12:58:39;;;;;;;33.75;9.80;;;6.50;85.70;;;;;;4786388;30;20023;-82
2022/01/19 13:01:09;;;;;;;34.80;10.68;;;6.50;86.50;;;;;;4753829;30;20086;-83
2022/01/19 13:03:41;;;;;;;33.45;10.98;;;6.60;86.30;;;;;;4781133;30;20130;-83
2022/01/19 13:06:13;;;;;;;25.33;10.40;;;6.60;85.90;;;;;;4786898;30;20039;-82
2022/01/19 13:09:04;;;;;;;25.10;10.65;;;6.60;85.90;;;;;;4784477;30;20042;-84
2022/01/19 13:11:49;;;;;;;25.95;10.77;;;6.60;85.70;;;;;;4764529;30;20446;-84
2022/01/19 13:14:15;;;;;;;24.83;9.63;;;6.50;85.90;;;;;;4787911;30;20031;-83
2022/01/19 13:16:49;;;;;;;24.35;9.98;;;6.50;85.70;;;;;;4753015;30;20075;-83
2022/01/19 13:19:26;;;;;;;42.67;11.77;;;6.50;85.70;;;;;;4780181;30;20039;-83
2022/01/19 13:21:58;;;;;;;;;;;6.50;85.80;;;;;;4783118;30;20047;-83
2022/01/19 13:24:30;;;;;;;25.30;9.68;;;6.40;86.00;;;;;;4785725;29;19921;-83
2022/01/19 13:26:59;;;;;;;31.70;10.13;;;6.40;86.40;;;;;;4772934;30;20362;-83
2022/01/19 13:29:51;;;;;;;28.83;9.60;;;6.50;86.70;;;;;;4750178;30;20036;-84
2022/01/19 13:32:21;;;;;;;27.88;10.18;;;6.50;86.20;;;;;;4726561;30;20045;-83
2022/01/19 13:35:04;;;;;;;31.27;10.68;;;6.50;86.20;;;;;;4712113;30;20336;-82
2022/01/19 13:37:42;;;;;;;23.23;9.95;;;6.50;86.30;;;;;;4741040;30;20056;-84
2022/01/19 13:40:16;;;;;;;27.50;10.18;;;6.50;86.10;;;;;;4724881;30;20034;-83
2022/01/19 13:42:49;;;;;;;33.88;11.30;;;6.50;86.20;;;;;;4728358;30;20073;-83
2022/01/19 13:45:30;;;;;;;32.13;10.70;;;6.60;86.00;;;;;;4725939;30;20056;-83
2022/01/19 13:48:21;;;;;;;27.02;9.98;;;6.60;85.70;;;;;;4711557;30;20084;-84
2022/01/19 13:50:53;;;;;;;29.33;10.90;;;6.60;85.50;;;;;;4712412;30;20056;-84
2022/01/19 13:53:37;;;;;;;28.38;11.02;;;6.60;85.30;;;;;;4723118;30;20099;-84
2022/01/19 13:56:09;;;;;;;23.48;9.70;;;6.60;85.50;;;;;;4726439;30;20364;-83
2022/01/19 13:58:48;;;;;;;32.42;9.85;;;6.60;85.50;;;;;;4741574;30;20046;-84
2022/01/19 14:01:20;;;;;;;29.77;11.13;;;6.60;85.50;;;;;;4727183;30;20033;-84
2022/01/19 14:04:10;;;;;;;25.55;10.40;;;6.60;85.80;;;;;;4727386;30;20041;-84
2022/01/19 14:06:37;;;;;;;35.38;10.73;;;6.60;85.50;;;;;;4742031;30;20048;-82
2022/01/19 14:09:16;;;;;;;25.65;10.70;;;6.60;85.60;;;;;;4747273;30;20113;-83
2022/01/19 14:12:06;;;;;;;104.03;48.00;;;6.60;85.60;;;;;;4763282;30;20142;-83
2022/01/19 14:14:42;;;;;;;40.72;14.05;;;6.60;85.40;;;;;;4768020;30;20099;-83
2022/01/19 14:17:22;;;;;;;46.38;13.48;;;6.60;85.20;;;;;;4768010;30;20115;-83
2022/01/19 14:19:49;;;;;;;30.08;11.05;;;6.50;85.30;;;;;;4785086;30;20030;-84
2022/01/19 14:22:25;;;;;;;33.20;11.63;;;6.60;85.40;;;;;;4756150;30;20043;-84
2022/01/19 14:24:58;;;;;;;33.17;10.90;;;6.50;85.00;;;;;;4802418;29;20027;-84
2022/01/19 14:27:24;;;;;;;32.28;10.02;;;6.50;85.40;;;;;;4784373;30;20042;-83
2022/01/19 14:30:15;;;;;;;41.00;12.25;;;6.50;85.50;;;;;;4770706;30;20247;-83
2022/01/19 14:32:45;;;;;;;31.20;10.40;;;6.50;85.40;;;;;;4781129;30;20040;-83
2022/01/19 14:35:42;;;;;;;31.50;10.95;;;6.40;85.60;;;;;;4786256;30;20043;-83
2022/01/19 14:38:26;;;;;;;;;;;6.40;85.70;;;;;;4764562;30;20039;-84
2022/01/19 14:40:52;;;;;;;26.98;9.43;;;6.30;85.80;;;;;;4767460;30;19913;-84
2022/01/19 14:43:20;;;;;;;28.27;8.88;;;6.20;86.10;;;;;;4767298;30;20273;-84
2022/01/19 14:45:51;;;;;;;26.92;8.38;;;6.20;86.40;;;;;;4769715;30;20153;-83
2022/01/19 14:48:20;;;;;;;30.92;9.35;;;6.20;86.60;;;;;;4767339;30;20108;-84
2022/01/19 14:50:47;;;;;;;29.25;10.05;;;6.10;86.80;;;;;;4783602;30;20075;-83
2022/01/19 14:53:13;;;;;;;;;;;6.10;87.10;;;;;;4755252;30;20097;-84
2022/01/19 14:55:41;;;;;;;31.67;10.00;;;6.00;87.30;;;;;;4758561;30;19921;-83
2022/01/19 14:58:09;;;;;;;31.10;10.95;;;6.00;87.40;;;;;;4788673;30;20038;-83
2022/01/19 15:00:37;;;;;;;32.22;9.82;;;5.90;87.50;;;;;;4784368;30;20043;-85
2022/01/19 15:03:04;;;;;;;26.33;9.73;;;5.90;87.70;;;;;;4773866;30;20041;-85
2022/01/19 15:05:33;;;;;;;31.17;9.75;;;5.80;88.00;;;;;;4760307;30;20064;-84
2022/01/19 15:08:00;;;;;;;29.92;9.40;;;5.80;88.30;;;;;;4781189;30;20252;-85
2022/01/19 15:10:28;;;;;;;27.20;10.77;;;5.70;88.70;;;;;;4751801;30;20359;-85
2022/01/19 15:12:54;;;;;;;29.83;11.00;;;5.60;89.00;;;;;;4789758;30;20455;-85
2022/01/19 15:15:24;;;;;;;32.30;10.70;;;5.60;89.10;;;;;;4756528;30;20040;-84
2022/01/19 15:17:54;;;;;;;30.73;11.23;;;5.50;89.30;;;;;;4780272;30;20231;-83
2022/01/19 15:20:20;;;;;;;32.65;10.90;;;5.40;89.80;;;;;;4761598;30;20267;-85
2022/01/19 15:22:46;;;;;;;30.55;10.90;;;5.40;89.90;;;;;;4749070;30;20035;-84
2022/01/19 15:25:13;;;;;;;31.17;11.17;;;5.30;89.90;;;;;;4778728;30;20080;-84
2022/01/19 15:27:39;;;;;;;33.80;11.32;;;5.30;90.10;;;;;;4747827;30;20727;-84
2022/01/19 15:30:07;;;;;;;37.17;12.02;;;5.20;90.20;;;;;;4750583;30;20035;-85
2022/01/19 15:32:33;;;;;;;34.72;12.20;;;5.10;90.30;;;;;;4779302;30;20032;-85
2022/01/19 15:34:58;;;;;;;31.33;12.98;;;5.00;90.50;;;;;;4765169;30;20032;-84
2022/01/19 15:37:24;;;;;;;40.75;14.57;;;5.00;90.90;;;;;;4765975;30;20032;-84
2022/01/19 15:39:52;;;;;;;40.72;13.85;;;4.90;91.00;;;;;;4765844;30;20059;-84
2022/01/19 15:42:18;;;;;;;33.30;12.75;;;4.80;91.00;;;;;;4765781;30;20100;-84
2022/01/19 15:44:45;;;;;;;28.98;13.18;;;4.80;91.20;;;;;;4766098;30;20125;-84
2022/01/19 15:47:12;;;;;;;;;;;4.70;91.40;;;;;;4760233;30;20063;-84
2022/01/19 15:49:38;;;;;;;30.92;12.20;;;4.60;91.50;;;;;;4766857;30;19913;-84
2022/01/19 15:52:04;;;;;;;38.55;14.88;;;4.50;91.60;;;;;;4755545;30;20327;-84
2022/01/19 15:54:32;;;;;;;33.15;13.73;;;4.40;91.70;;;;;;4765908;30;20039;-84
2022/01/19 15:56:58;;;;;;;41.97;15.45;;;4.40;91.90;;;;;;4763302;30;20063;-83
2022/01/19 15:59:24;;;;;;;43.93;15.10;;;4.30;92.10;;;;;;4779641;30;20047;-84
2022/01/19 16:01:50;;;;;;;37.83;15.68;;;4.30;92.10;;;;;;4779339;30;20093;-85
2022/01/19 16:04:17;;;;;;;43.00;16.50;;;4.20;92.00;;;;;;4763568;30;20039;-85
2022/01/19 16:06:43;;;;;;;35.50;15.27;;;4.10;92.10;;;;;;4764780;30;20039;-85
2022/01/19 16:09:11;;;;;;;41.17;15.27;;;4.00;92.40;;;;;;4764442;30;20059;-85
2022/01/19 16:11:38;;;;;;;32.58;14.10;;;3.90;92.60;;;;;;4777881;30;20043;-84
2022/01/19 16:14:04;;;;;;;;;;;3.90;92.60;;;;;;4753663;30;20028;-85
2022/01/19 16:16:30;;;;;;;33.50;15.37;;;3.80;92.60;;;;;;4753430;30;19994;-84
2022/01/19 16:18:56;;;;;;;43.35;16.00;;;3.80;92.70;;;;;;4785952;30;20098;-84
2022/01/19 16:21:22;;;;;;;44.30;16.92;;;3.70;92.60;;;;;;4797616;29;20081;-85
2022/01/19 16:26:32;;;;;;;39.15;14.82;;;3.60;93.00;;;;;;4783566;29;20027;-85
2022/01/19 16:28:59;;;;;;;37.47;15.30;;;3.50;93.20;;;;;;4763934;30;20048;-85
2022/01/19 16:31:25;;;;;;;41.95;15.13;;;3.50;93.10;;;;;;4732850;30;20036;-85
2022/01/19 16:33:53;;;;;;;41.73;15.80;;;3.40;93.00;;;;;;4779794;30;20036;-85
2022/01/19 16:36:20;;;;;;;44.72;17.60;;;3.30;93.00;;;;;;4749142;30;20063;-85
2022/01/19 16:38:46;;;;;;;33.55;14.77;;;3.20;92.90;;;;;;4776445;30;20034;-85
2022/01/19 16:41:17;;;;;;;24.55;13.88;;;3.20;93.00;;;;;;4778351;30;20036;-84
2022/01/19 16:43:45;;;;;;;40.20;16.90;;;3.10;93.00;;;;;;4776386;30;20039;-84
2022/01/19 16:46:12;;;;;;;42.05;16.40;;;3.10;93.10;;;;;;4770111;30;20032;-86
2022/01/19 16:48:38;;;;;;;45.95;17.90;;;2.90;93.40;;;;;;4766361;30;20038;-85
2022/01/19 16:51:04;;;;;;;43.67;19.90;;;2.90;93.20;;;;;;4765053;30;20042;-84
2022/01/19 16:53:32;;;;;;;39.33;18.77;;;2.80;93.40;;;;;;4767838;30;20043;-84
2022/01/19 16:56:01;;;;;;;53.33;20.55;;;2.70;93.40;;;;;;4786010;29;20073;-84
2022/01/19 16:58:29;;;;;;;39.72;17.30;;;2.70;93.50;;;;;;4767404;30;20095;-84
2022/01/19 17:00:57;;;;;;;48.50;18.80;;;2.60;93.50;;;;;;4785620;30;20020;-84
2022/01/19 17:03:24;;;;;;;38.67;17.05;;;2.50;93.80;;;;;;4754257;30;20028;-84
2022/01/19 17:05:50;;;;;;;47.50;19.83;;;2.40;93.80;;;;;;4755470;30;20057;-84
2022/01/19 17:08:17;;;;;;;48.37;20.43;;;2.40;93.90;;;;;;4768752;30;20050;-84
2022/01/19 17:10:49;;;;;;;58.70;21.58;;;2.30;94.00;;;;;;4758172;30;20035;-84
2022/01/19 17:13:29;;;;;;;48.78;21.73;;;2.30;94.20;;;;;;4752197;30;20478;-84
2022/01/19 17:16:09;;;;;;;52.47;22.13;;;2.30;94.30;;;;;;4777336;30;20361;-84
2022/01/19 17:18:35;;;;;;;47.72;22.25;;;2.20;94.40;;;;;;4736912;30;20267;-84
2022/01/19 17:21:01;;;;;;;44.25;20.60;;;2.20;94.60;;;;;;4733685;30;20035;-86
2022/01/19 17:23:26;;;;;;;56.08;22.25;;;2.10;94.50;;;;;;4779802;30;20047;-85
2022/01/19 17:25:52;;;;;;;51.63;21.75;;;2.10;94.60;;;;;;4767366;30;20063;-85
2022/01/19 17:28:18;;;;;;;95.20;40.28;;;2.00;94.70;;;;;;4745318;30;20035;-85
2022/01/19 17:30:44;;;;;;;89.35;38.95;;;2.00;94.70;;;;;;4763170;30;20333;-84
2022/01/19 17:33:10;;;;;;;87.28;36.78;;;2.00;94.70;;;;;;4763469;30;20039;-84
2022/01/19 17:35:37;;;;;;;99.20;39.85;;;1.90;94.70;;;;;;4750437;30;20063;-85
2022/01/19 17:38:03;;;;;;;90.53;39.13;;;1.90;94.80;;;;;;4769998;30;20035;-84
2022/01/19 17:40:29;;;;;;;89.13;37.60;;;1.90;94.80;;;;;;4753238;30;20213;-83
2022/01/19 17:42:55;;;;;;;80.97;35.50;;;1.80;94.80;;;;;;4754266;30;20114;-85
2022/01/19 17:45:32;;;;;;;84.68;33.67;;;1.80;95.00;;;;;;4755527;29;20110;-84
2022/01/19 17:48:06;;;;;;;77.88;34.20;;;1.70;95.30;;;;;;4756378;30;20239;-84
2022/01/19 17:53:10;;;;;;;65.95;31.15;;;1.70;95.40;;;;;;4781443;30;20084;-84
2022/01/19 17:55:38;;;;;;;69.63;27.52;;;1.60;95.40;;;;;;4751587;30;20052;-85
2022/01/19 17:58:05;;;;;;;63.03;26.00;;;1.60;95.40;;;;;;4769812;30;20366;-84